createdAt,value
2023-02-03T00:17:16.580Z,50.7
2023-02-03T00:37:16.585Z,50.8
2023-02-03T00:57:16.550Z,50.8
2023-02-03T01:17:16.507Z,50.8
2023-02-03T01:37:16.599Z,50.9
2023-02-03T01:57:16.453Z,50.8
2023-02-03T02:17:16.434Z,50.9
2023-02-03T02:37:16.418Z,50.9
2023-02-03T02:57:16.405Z,51.0
2023-02-03T03:17:16.342Z,50.9
2023-02-03T03:37:16.314Z,51.0
2023-02-03T03:57:16.345Z,51.0
2023-02-03T04:17:16.338Z,51.0
2023-02-03T04:37:16.265Z,50.6
2023-02-03T04:57:16.320Z,50.3
2023-02-03T05:17:16.345Z,50.1
2023-02-03T05:37:16.217Z,50.1
2023-02-03T05:57:16.220Z,50.0
2023-02-03T06:17:16.224Z,49.9
2023-02-03T06:37:16.135Z,49.9
2023-02-03T06:57:16.084Z,49.8
2023-02-03T07:17:16.065Z,49.8
2023-02-03T07:37:16.167Z,49.8
2023-02-03T07:57:16.029Z,49.7
2023-02-03T08:17:15.967Z,49.7
2023-02-03T08:37:16.076Z,49.7
2023-02-03T08:57:16.011Z,49.7
2023-02-03T09:17:15.926Z,49.7
2023-02-03T09:37:16.020Z,49.6
2023-02-03T09:57:15.830Z,49.6
2023-02-03T10:17:15.837Z,49.6
2023-02-03T10:37:15.840Z,49.6
2023-02-03T10:57:15.789Z,49.6
2023-02-03T11:17:15.945Z,49.6
2023-02-03T11:37:15.736Z,49.6
2023-02-03T11:57:15.721Z,49.6
2023-02-03T12:17:15.684Z,49.6
2023-02-03T12:37:15.667Z,49.6
2023-02-03T12:57:15.627Z,49.6
2023-02-03T13:17:15.614Z,49.6
2023-02-03T13:37:15.663Z,49.6
2023-02-03T13:57:15.568Z,49.6
2023-02-03T14:17:15.544Z,49.6
2023-02-03T14:37:15.552Z,49.6
2023-02-03T14:57:15.468Z,49.6
2023-02-03T15:17:15.451Z,49.6
2023-02-03T15:37:15.433Z,49.6
2023-02-03T15:57:15.378Z,49.6
2023-02-03T16:17:15.372Z,49.6
2023-02-03T16:37:15.394Z,49.6
2023-02-03T16:57:15.388Z,49.6
2023-02-03T17:17:15.408Z,49.7
2023-02-03T17:37:15.373Z,49.6
2023-02-03T17:57:15.334Z,50.5
2023-02-03T18:17:15.205Z,48.6
2023-02-03T18:37:15.339Z,51.0
2023-02-03T18:57:15.314Z,51.9
2023-02-03T19:17:15.242Z,50.5
2023-02-03T19:37:15.222Z,49.8
2023-02-03T19:57:15.071Z,50.0
2023-02-03T20:17:15.138Z,50.5
2023-02-03T20:37:15.025Z,50.5
2023-02-03T20:57:15.011Z,50.4
2023-02-03T21:17:15.007Z,50.4
2023-02-03T21:37:14.992Z,50.5
2023-02-03T21:57:14.943Z,50.6
2023-02-03T22:17:14.940Z,50.4
2023-02-03T22:37:14.881Z,50.5
2023-02-03T22:57:14.885Z,50.6
2023-02-03T23:17:14.851Z,50.6
2023-02-03T23:37:14.809Z,50.7
2023-02-03T23:57:14.786Z,50.7
